Latest Weather Observations for Noonamah

IDD60801

Issued at 10:35 am CST Friday 29 August 2014 (issued every 30 minutes, with the page automatically refreshed every 10 minutes)

About weather observations | Map of weather stations | Latest weather observations for NT | Other Formats
Station Details ID: 014314 Name: NOONAMAH AIRSTRIP Lat: -12.61 Lon: 131.05 Height: 17.5 m
Data from the previous 72 hours. | See also: Recent months for locations in Northern Territory
Date/Time
CST
Temp
°C
App
Temp
°C
Dew
Point
Rel
Hum
%
Delta-T
°C
Wind Press
QNH
hPa
Press
MSL
hPa
Rain
since 9 am
mm
Dir
 
Spd
km/h
Gust
km/h
Spd
kts
Gust
kts
29/10:30am 28.6 24.7 7.2 26 11.5 SSE 17 26 9 14 1015.5 1015.4 0.0
29/10:00am 27.7 27.2 12.5 39 8.9 SE 7 17 4 9 1015.7 1015.6 0.0
29/09:30am 25.6 26.2 13.1 46 7.3 SE 2 6 1 3 1015.7 1015.6 0.0
29/09:00am 23.4 23.4 12.4 50 6.3 SE 4 6 2 3 1015.5 1015.4 0.0
29/08:30am 19.9 20.0 12.7 63 4.1 ESE 4 6 2 3 1015.5 1015.4 0.0
29/08:00am 16.5 17.2 12.3 76 2.3 CALM 0 0 0 0 1015.3 1015.2 0.0
29/07:30am 13.2 13.3 10.2 82 1.6 CALM 0 0 0 0 1014.9 1014.8 0.0
29/07:00am 12.0 12.0 9.7 86 1.2 CALM 0 0 0 0 1014.8 1014.7 0.0
29/06:30am 12.4 12.3 9.6 83 1.4 CALM 0 0 0 0 1014.5 1014.4 0.0
29/06:00am 12.4 12.3 9.6 83 1.4 CALM 0 0 0 0 1014.0 1013.9 0.0
29/05:30am 12.9 13.1 10.6 86 1.2 CALM 0 0 0 0 1013.8 1013.7 0.0
29/05:00am 12.2 12.1 9.4 83 1.4 CALM 0 0 0 0 1013.5 1013.4 0.0
29/04:30am 12.6 12.1 9.4 81 1.6 ESE 2 4 1 2 1013.5 1013.4 0.0
29/04:00am 13.1 12.7 9.7 80 1.7 ESE 2 4 1 2 1013.3 1013.2 0.0
29/03:30am 13.4 13.3 9.6 78 1.9 CALM 0 0 0 0 1013.3 1013.2 0.0
29/03:00am 13.7 13.7 9.9 78 2.0 CALM 0 0 0 0 1013.4 1013.3 0.0
29/02:30am 14.3 13.7 10.3 77 2.1 SSE 4 6 2 3 1013.6 1013.5 0.0
29/02:00am 13.5 13.5 9.7 78 1.9 CALM 0 0 0 0 1013.5 1013.4 0.0
29/01:30am 13.3 13.2 9.5 78 1.9 CALM 0 0 0 0 1013.5 1013.4 0.0
29/01:00am 13.7 13.5 9.0 73 2.4 CALM 0 0 0 0 1013.5 1013.4 0.0
29/12:30am 14.2 14.1 9.6 74 2.4 CALM 0 0 0 0 1013.7 1013.6 0.0
29/12:00am 14.1 14.0 9.3 73 2.5 CALM 0 0 0 0 1014.0 1013.9 0.0
 
Date/Time
CST
Temp
°C
App
Temp
°C
Dew
Point
Rel
Hum
%
Delta-T
°C
Wind Press
QNH
hPa
Press
MSL
hPa
Rain
since 9 am
mm
Dir
 
Spd
km/h
Gust
km/h
Spd
kts
Gust
kts
28/11:30pm 15.0 14.6 9.6 70 2.8 ESE 2 4 1 2 1014.1 1014.0 0.0
28/11:00pm 15.5 15.5 9.8 69 3.0 CALM 0 0 0 0 1014.1 1014.0 0.0
28/10:30pm 16.1 16.2 10.0 67 3.2 CALM 0 0 0 0 1014.1 1014.0 0.0
28/10:00pm 17.5 17.7 10.4 63 3.8 CALM 0 0 0 0 1014.0 1013.9 0.0
28/09:30pm 19.0 19.6 12.0 64 3.9 CALM 0 2 0 1 1013.7 1013.6 0.0
28/09:00pm 19.5 19.9 13.7 69 3.3 SW 4 6 2 3 1013.5 1013.4 0.0
28/08:30pm 20.5 20.6 11.4 56 5.0 W 2 4 1 2 1013.3 1013.2 0.0
28/08:00pm 21.7 21.1 11.7 53 5.6 W 6 7 3 4 1013.0 1012.9 0.0
28/07:30pm 24.2 23.4 9.8 40 7.9 SW 4 6 2 3 1012.6 1012.5 0.0
28/07:00pm 24.5 23.7 8.0 35 8.8 N 2 4 1 2 1012.0 1011.9 0.0
28/06:30pm 28.1 26.6 8.4 29 10.8 NNW 6 7 3 4 1011.5 1011.4 0.0
28/06:00pm 29.7 28.1 8.7 27 11.6 NNW 7 11 4 6 1011.2 1011.1 0.0
28/05:30pm 31.9 28.8 1.1 14 15.2 NE 7 11 4 6 1011.0 1010.9 0.0
28/05:00pm 32.7 28.7 -5.8 8 17.0 NE 7 13 4 7 1010.6 1010.5 0.0
28/04:30pm 32.7 28.3 -5.8 8 17.0 NNE 9 17 5 9 1010.6 1010.5 0.0
28/04:00pm 32.8 28.4 -5.7 8 17.0 ENE 9 20 5 11 1010.6 1010.5 0.0
28/03:30pm 32.7 28.9 -5.8 8 17.0 ENE 6 11 3 6 1010.7 1010.6 0.0
28/03:00pm 32.9 28.7 -4.1 9 16.8 NNE 9 13 5 7 1011.0 1010.9 0.0
28/02:30pm 33.1 27.8 -4.0 9 16.9 SSE 15 30 8 16 1011.3 1011.2 0.0
28/02:00pm 32.9 27.5 -4.1 9 16.8 SE 15 22 8 12 1011.6 1011.5 0.0
28/01:30pm 32.4 26.6 -4.5 9 16.6 ESE 17 30 9 16 1012.2 1012.1 0.0
28/01:00pm 31.5 26.6 -3.8 10 16.0 SSE 13 26 7 14 1012.7 1012.6 0.0
28/12:30pm 31.0 25.0 -2.9 11 15.5 SE 19 26 10 14 1013.2 1013.1 0.0
28/12:00pm 30.2 24.1 -3.5 11 15.2 E 19 28 10 15 1013.9 1013.8 0.0
28/11:30am 30.1 24.9 -2.4 12 14.9 E 15 26 8 14 1014.5 1014.4 0.0
28/11:00am 29.8 23.7 -2.6 12 14.8 E 20 33 11 18 1014.7 1014.6 0.0
28/10:30am 28.4 23.5 1.8 18 13.0 E 17 26 9 14 1014.9 1014.8 0.0
28/10:00am 27.5 23.3 3.9 22 11.9 ESE 15 28 8 15 1015.3 1015.2 0.0
28/09:30am 25.9 23.4 9.7 36 8.9 ESE 13 20 7 11 1015.3 1015.2 0.0
28/09:00am 23.6 23.5 13.8 54 5.7 ESE 7 9 4 5 1015.2 1015.1 0.0
28/08:30am 20.5 21.1 14.2 67 3.7 ESE 4 4 2 2 1015.2 1015.1 0.0
28/08:00am 17.0 17.2 12.9 77 2.3 SE 4 6 2 3 1014.9 1014.8 0.0
28/07:30am 13.7 14.4 12.1 90 0.9 CALM 0 0 0 0 1014.7 1014.6 0.0
28/07:00am 11.3 11.1 9.2 87 1.1 CALM 0 0 0 0 1014.3 1014.2 0.0
28/06:30am 12.3 12.5 10.5 89 0.9 CALM 0 0 0 0 1013.9 1013.8 0.0
28/06:00am 12.4 12.5 10.0 85 1.2 CALM 0 0 0 0 1013.6 1013.5 0.0
28/05:30am 12.8 12.5 10.2 84 1.3 SE 2 4 1 2 1013.3 1013.2 0.0
28/05:00am 13.4 13.3 10.8 84 1.4 SSE 2 4 1 2 1013.3 1013.2 0.0
28/04:30am 14.3 14.2 10.9 80 1.8 ESE 2 4 1 2 1013.2 1013.1 0.0
28/04:00am 14.9 15.1 11.9 82 1.6 ESE 2 6 1 3 1013.3 1013.2 0.0
28/03:30am 13.8 14.0 10.4 80 1.8 CALM 0 0 0 0 1013.1 1013.0 0.0
28/03:00am 14.3 14.4 10.1 76 2.2 CALM 0 0 0 0 1013.3 1013.2 0.0
28/02:30am 15.1 15.3 10.5 74 2.4 CALM 0 0 0 0 1013.5 1013.4 0.0
28/02:00am 15.7 16.2 11.5 76 2.3 CALM 0 0 0 0 1013.7 1013.6 0.0
28/01:30am 14.5 14.3 10.3 76 2.2 SE 2 4 1 2 1014.1 1014.0 0.0
28/01:00am 14.9 14.7 10.3 74 2.4 SE 2 4 1 2 1014.4 1014.3 0.0
28/12:30am 15.8 16.0 10.6 71 2.8 CALM 0 0 0 0 1014.3 1014.2 0.0
28/12:00am 15.7 15.9 10.5 71 2.7 CALM 0 0 0 0 1014.2 1014.1 0.0
 
Date/Time
CST
Temp
°C
App
Temp
°C
Dew
Point
Rel
Hum
%
Delta-T
°C
Wind Press
QNH
hPa
Press
MSL
hPa
Rain
since 9 am
mm
Dir
 
Spd
km/h
Gust
km/h
Spd
kts
Gust
kts
27/11:30pm 16.4 16.6 10.5 68 3.1 CALM 0 0 0 0 1014.0 1013.9 0.0
27/11:00pm 17.2 17.5 10.8 66 3.4 CALM 0 0 0 0 1014.1 1014.0 0.0
27/10:30pm 17.9 18.2 11.0 64 3.7 CALM 0 0 0 0 1013.9 1013.8 0.0
27/10:00pm 18.6 18.8 11.7 64 3.8 ENE 2 4 1 2 1013.7 1013.6 0.0
27/09:30pm 22.7 23.4 14.5 60 4.8 SW 4 6 2 3 1013.6 1013.5 0.0
27/09:00pm 22.5 22.8 14.4 60 4.8 SW 6 7 3 4 1013.2 1013.1 0.0
27/08:30pm 21.7 20.1 8.9 44 6.8 SW 7 9 4 5 1012.8 1012.7 0.0
27/08:00pm 22.8 22.1 7.0 36 8.2 CALM 0 0 0 0 1012.4 1012.3 0.0
27/07:30pm 23.8 22.4 7.4 35 8.6 SW 4 6 2 3 1012.0 1011.9 0.0
27/07:00pm 27.2 25.7 6.6 27 10.8 NE 4 6 2 3 1011.2 1011.1 0.0
27/06:30pm 29.9 27.7 5.2 21 12.9 NE 6 9 3 5 1010.8 1010.7 0.0
27/06:00pm 32.4 28.8 0.5 13 15.6 ESE 9 15 5 8 1010.4 1010.3 0.0
27/05:30pm 33.0 27.8 -0.2 12 16.2 ESE 17 28 9 15 1010.2 1010.1 0.0
27/05:00pm 33.1 29.4 2.1 14 15.7 E 11 19 6 10 1010.1 1010.0 0.0
27/04:30pm 33.3 29.6 2.2 14 15.8 E 11 20 6 11 1010.0 1009.9 0.0
27/04:00pm 33.4 28.8 1.3 13 16.0 SE 15 26 8 14 1010.0 1009.9 0.0
27/03:30pm 33.5 29.6 1.3 13 16.1 SE 11 20 6 11 1010.1 1010.0 0.0
27/03:00pm 33.0 28.1 2.0 14 15.6 SE 17 28 9 15 1010.4 1010.3 0.0
27/02:30pm 33.3 28.6 1.2 13 16.0 SE 15 30 8 16 1010.8 1010.7 0.0
27/02:00pm 33.0 28.5 2.0 14 15.6 E 15 26 8 14 1011.3 1011.2 0.0
27/01:30pm 32.6 26.9 2.6 15 15.2 E 22 37 12 20 1011.8 1011.7 0.0
27/01:00pm 31.9 27.2 3.0 16 14.7 E 17 32 9 17 1012.3 1012.2 0.0
27/12:30pm 31.7 26.5 3.7 17 14.4 ESE 20 41 11 22 1012.8 1012.7 0.0
27/12:00pm 30.8 25.0 4.5 19 13.6 E 24 39 13 21 1013.3 1013.2 0.0
27/11:30am 30.7 25.8 5.2 20 13.4 E 20 33 11 18 1013.7 1013.6 0.0
27/11:00am 30.2 25.9 8.0 25 12.2 ESE 20 30 11 16 1014.1 1014.0 0.0
27/10:30am 28.4 25.0 9.2 30 10.6 E 17 28 9 15 1014.7 1014.6 0.0
27/10:00am 27.4 25.4 10.2 34 9.6 E 11 19 6 10 1015.0 1014.9 0.0
27/09:30am 25.8 24.5 12.6 44 7.6 E 11 17 6 9 1015.0 1014.9 0.0
27/09:00am 23.3 22.6 13.2 53 5.8 ESE 9 15 5 8 1014.9 1014.8 0.0
27/08:30am 20.5 20.6 12.7 61 4.4 ESE 4 7 2 4 1014.4 1014.3 0.0
27/08:00am 17.6 18.6 13.1 75 2.5 CALM 0 0 0 0 1014.2 1014.1 0.0
27/07:30am 14.0 14.2 11.9 87 1.1 SE 2 4 1 2 1013.7 1013.6 0.0
27/07:00am 13.1 13.1 11.2 88 1.0 SE 2 6 1 3 1013.5 1013.4 0.0
27/06:30am 13.8 13.6 11.8 88 1.1 ESE 4 6 2 3 1013.3 1013.2 0.0
27/06:00am 14.0 13.5 12.2 89 1.0 SSE 6 7 3 4 1012.8 1012.7 0.0
27/05:30am 13.9 14.3 12.5 91 0.8 S 2 4 1 2 1012.3 1012.2 0.0
27/05:00am 14.0 14.8 12.4 90 0.9 CALM 0 0 0 0 1012.0 1011.9 0.0
27/04:30am 14.9 15.2 13.4 91 0.8 NNE 4 6 2 3 1012.0 1011.9 0.0
27/04:00am 13.1 12.2 10.8 86 1.2 NNE 6 9 3 5 1012.1 1012.0 0.0
27/03:30am 13.9 13.8 10.9 82 1.6 ENE 2 4 1 2 1012.1 1012.0 0.0
27/03:00am 13.8 14.3 11.5 86 1.2 CALM 0 0 0 0 1012.1 1012.0 0.0
27/02:30am 14.1 14.2 11.4 84 1.4 E 2 6 1 3 1012.4 1012.3 0.0
27/02:00am 14.9 14.4 12.0 83 1.6 SSE 6 9 3 5 1012.6 1012.5 0.0
27/01:30am 15.0 15.7 12.3 84 1.5 CALM 0 0 0 0 1012.6 1012.5 0.0
27/01:00am 15.0 15.5 11.6 80 1.8 CALM 0 0 0 0 1012.7 1012.6 0.0
27/12:30am 15.6 16.2 12.0 79 2.0 CALM 0 0 0 0 1012.9 1012.8 0.0
27/12:00am 16.6 17.4 12.4 76 2.3 CALM 0 0 0 0 1013.0 1012.9 0.0
 
Date/Time
CST
Temp
°C
App
Temp
°C
Dew
Point
Rel
Hum
%
Delta-T
°C
Wind Press
QNH
hPa
Press
MSL
hPa
Rain
since 9 am
mm
Dir
 
Spd
km/h
Gust
km/h
Spd
kts
Gust
kts
26/11:30pm 17.4 18.4 13.3 77 2.3 CALM 0 0 0 0 1013.1 1013.0 0.0
26/11:00pm 17.8 18.6 12.5 71 2.9 CALM 0 0 0 0 1013.2 1013.1 0.0
26/10:30pm 19.9 20.7 13.6 67 3.6 SSW 2 4 1 2 1013.1 1013.0 0.0
26/10:00pm 21.4 22.8 15.3 68 3.6 WSW 2 4 1 2 1012.9 1012.8 0.0
26/09:30pm 22.4 22.9 15.5 65 4.1 W 7 9 4 5 1012.7 1012.6 0.0
26/09:00pm 23.2 23.6 15.3 61 4.7 W 7 11 4 6 1012.6 1012.5 0.0
26/08:30pm 23.6 23.9 15.1 59 5.1 W 7 11 4 6 1012.2 1012.1 0.0
26/08:00pm 23.6 22.1 8.5 38 8.0 W 6 9 3 5 1012.0 1011.9 0.0
26/07:30pm 25.0 23.0 6.2 30 9.7 N 6 7 3 4 1011.4 1011.3 0.0
26/07:00pm 26.9 24.4 4.0 23 11.5 S 6 7 3 4 1010.8 1010.7 0.0
26/06:30pm 30.0 27.4 3.1 18 13.6 S 6 7 3 4 1010.4 1010.3 0.0
26/06:00pm 31.6 28.2 1.8 15 14.9 SSE 9 15 5 8 1010.2 1010.1 0.0
26/05:30pm 32.2 28.9 2.3 15 15.1 SE 9 19 5 10 1010.1 1010.0 0.0
26/05:00pm 32.6 27.9 0.6 13 15.7 ESE 15 22 8 12 1010.1 1010.0 0.0
26/04:30pm 32.8 28.6 1.8 14 15.6 SE 13 19 7 10 1010.2 1010.1 0.0
26/04:00pm 32.8 26.9 1.8 14 15.6 SE 22 28 12 15 1010.4 1010.3 0.0
26/03:30pm 33.5 29.6 1.3 13 16.1 ESE 11 19 6 10 1010.8 1010.7 0.0
26/03:00pm 33.2 28.2 1.1 13 16.0 E 17 28 9 15 1011.0 1010.9 0.0
26/02:30pm 32.7 27.8 1.7 14 15.5 E 17 28 9 15 1011.5 1011.4 0.0
26/02:00pm 32.3 27.3 1.4 14 15.4 E 17 26 9 14 1011.9 1011.8 0.0
26/01:30pm 31.7 26.8 1.9 15 14.9 ESE 17 30 9 16 1012.3 1012.2 0.0
26/01:00pm 31.8 27.1 2.9 16 14.7 E 17 20 9 11 1012.7 1012.6 0.0
26/12:30pm 31.0 25.0 3.1 17 14.1 SE 24 33 13 18 1013.2 1013.1 0.0
26/12:00pm 31.8 26.5 2.9 16 14.7 SE 20 39 11 21 1013.8 1013.7 0.0
26/11:30am 30.5 23.9 1.9 16 14.2 ESE 26 43 14 23 1014.4 1014.3 0.0
26/11:00am 30.1 24.5 3.2 18 13.6 ESE 22 33 12 18 1014.8 1014.7 0.0

Other Formats:

Comma delimited format used in spreadsheet applications
http://www.bom.gov.au/fwo/IDD60801/IDD60801.94105.axf

JavaScript Object Notation format (JSON) in row-major order
http://www.bom.gov.au/fwo/IDD60801/IDD60801.94105.json